Time;durP1;ratioP1;P1;durP2;ratioP2;P2;SDS_P1;SDS_P2;PMS_P1;PMS_P2;Temp;Humidity;BMP_temperature;BMP_pressure;BME280_temperature;BME280_humidity;BME280_pressure;Samples;Min_cycle;Max_cycle;Signal;HPM_P1;HPM_P2
2022/11/28 00:02:13;;;;;;;17.25;10.75;;;5.90;99.90;;;;;;5010145;28;20311;-42
2022/11/28 00:04:39;;;;;;;18.83;10.90;;;5.90;99.90;;;;;;5010032;28;20157;-41
2022/11/28 00:07:05;;;;;;;17.10;11.23;;;5.90;99.90;;;;;;5010178;28;20026;-41
2022/11/28 00:09:30;;;;;;;16.55;10.55;;;5.90;99.90;;;;;;5009549;28;20543;-45
2022/11/28 00:11:56;;;;;;;17.65;10.50;;;5.90;99.90;;;;;;5010084;28;20026;-40
2022/11/28 00:14:21;;;;;;;18.90;10.85;;;5.90;99.90;;;;;;5009762;28;20038;-40
2022/11/28 00:16:48;;;;;;;18.35;10.27;;;5.90;99.90;;;;;;5010664;28;20022;-42
2022/11/28 00:19:14;;;;;;;17.13;10.48;;;5.90;99.90;;;;;;5008865;28;20056;-41
2022/11/28 00:21:40;;;;;;;17.65;11.13;;;5.90;99.90;;;;;;5009964;28;20066;-40
2022/11/28 00:24:07;;;;;;;18.25;10.90;;;5.90;99.90;;;;;;5008885;28;20026;-41
2022/11/28 00:26:37;;;;;;;19.05;10.70;;;5.90;99.90;;;;;;5009894;28;20366;-40
2022/11/28 00:29:03;;;;;;;16.13;10.68;;;5.90;99.90;;;;;;5008532;28;20075;-40
2022/11/28 00:31:35;;;;;;;18.33;10.48;;;5.80;99.90;;;;;;5009319;28;20041;-40
2022/11/28 00:34:01;;;;;;;21.60;11.88;;;5.80;99.90;;;;;;5009433;28;20057;-40
2022/11/28 00:36:28;;;;;;;15.40;10.88;;;5.80;99.90;;;;;;5009775;28;20030;-40
2022/11/28 00:38:54;;;;;;;14.68;9.80;;;5.80;99.90;;;;;;5009824;28;20139;-41
2022/11/28 00:41:22;;;;;;;18.95;10.88;;;5.80;99.90;;;;;;5009150;28;20101;-40
2022/11/28 00:43:49;;;;;;;17.38;10.90;;;5.80;99.90;;;;;;5009736;28;20417;-40
2022/11/28 00:46:15;;;;;;;15.68;10.18;;;5.80;99.90;;;;;;5009569;28;20030;-41
2022/11/28 00:48:41;;;;;;;22.02;11.35;;;5.70;99.90;;;;;;5009089;28;20574;-41
2022/11/28 00:51:10;;;;;;;16.88;10.40;;;5.80;99.90;;;;;;5008734;28;20036;-41
2022/11/28 00:53:37;;;;;;;16.15;9.93;;;5.80;99.90;;;;;;5009182;28;20041;-40
2022/11/28 00:56:04;;;;;;;15.55;10.02;;;5.80;99.90;;;;;;5009009;28;20022;-41
2022/11/28 00:58:31;;;;;;;14.82;10.20;;;5.80;99.90;;;;;;5008110;28;20022;-43
2022/11/28 01:00:56;;;;;;;19.25;10.68;;;5.80;99.90;;;;;;5007515;28;20022;-41
2022/11/28 01:03:21;;;;;;;16.75;9.82;;;5.80;99.90;;;;;;5008725;28;20026;-41
2022/11/28 01:05:47;;;;;;;16.33;10.20;;;5.80;99.90;;;;;;5009235;28;20510;-42
2022/11/28 01:08:12;;;;;;;16.20;9.52;;;5.80;99.90;;;;;;5008854;28;20033;-42
2022/11/28 01:10:41;;;;;;;17.08;10.30;;;5.80;99.90;;;;;;5008420;28;20124;-41
2022/11/28 01:13:08;;;;;;;21.88;9.95;;;5.80;99.90;;;;;;5008850;28;20037;-42
2022/11/28 01:15:34;;;;;;;18.52;10.18;;;5.80;99.90;;;;;;5009381;28;20064;-42
2022/11/28 01:18:00;;;;;;;16.70;10.00;;;5.80;99.90;;;;;;5009296;28;20034;-40
2022/11/28 01:20:25;;;;;;;16.13;9.70;;;5.80;99.90;;;;;;5008779;28;20029;-41
2022/11/28 01:22:51;;;;;;;16.38;10.25;;;5.80;99.90;;;;;;5009211;28;20030;-41
2022/11/28 01:25:16;;;;;;;16.75;10.05;;;5.80;99.90;;;;;;5009121;28;20034;-41
2022/11/28 01:27:42;;;;;;;14.32;9.32;;;5.80;99.90;;;;;;5008893;28;20022;-40
2022/11/28 01:30:07;;;;;;;15.25;9.88;;;5.80;99.90;;;;;;5008087;28;20543;-40
2022/11/28 01:32:33;;;;;;;17.73;10.68;;;5.80;99.90;;;;;;5008779;28;20062;-40
2022/11/28 01:34:58;;;;;;;14.93;9.82;;;5.80;99.90;;;;;;5007141;28;20033;-40
2022/11/28 01:37:23;;;;;;;16.90;9.93;;;5.80;99.90;;;;;;5008807;28;20025;-40
2022/11/28 01:39:49;;;;;;;17.38;11.27;;;5.90;99.90;;;;;;5040250;28;20022;-41
2022/11/28 01:42:19;;;;;;;15.32;9.70;;;5.90;99.90;;;;;;5007350;28;20447;-40
2022/11/28 01:44:47;;;;;;;16.73;10.00;;;5.90;99.90;;;;;;5008611;28;20155;-40
2022/11/28 01:47:22;;;;;;;15.45;9.15;;;5.90;99.90;;;;;;5008909;28;20030;-40
2022/11/28 01:49:49;;;;;;;17.75;9.70;;;5.90;99.90;;;;;;5008417;28;20073;-39
2022/11/28 01:52:18;;;;;;;14.68;10.32;;;5.90;99.90;;;;;;5008822;28;20043;-40
2022/11/28 01:54:49;;;;;;;16.50;8.57;;;5.90;99.90;;;;;;5008538;28;20030;-41
2022/11/28 01:57:19;;;;;;;14.45;9.75;;;5.90;99.90;;;;;;5008694;28;20042;-40
2022/11/28 02:00:07;;;;;;;21.07;10.20;;;5.90;99.90;;;;;;5007952;28;20240;-40
2022/11/28 02:02:59;;;;;;;16.25;9.32;;;5.90;99.90;;;;;;5007195;28;20018;-40
2022/11/28 02:05:25;;;;;;;18.35;10.75;;;5.90;99.90;;;;;;5008954;28;20069;-39
2022/11/28 02:07:51;;;;;;;16.90;9.25;;;5.90;99.90;;;;;;5008446;28;20065;-40
2022/11/28 02:10:26;;;;;;;17.00;9.50;;;5.90;99.90;;;;;;5007992;28;20034;-40
2022/11/28 02:13:14;;;;;;;17.02;10.82;;;5.90;99.90;;;;;;5008533;28;20034;-40
2022/11/28 02:15:58;;;;;;;18.63;10.88;;;5.90;99.90;;;;;;5008373;28;20030;-40
2022/11/28 02:18:56;;;;;;;19.65;11.32;;;5.80;99.90;;;;;;5008639;28;20033;-40
2022/11/28 02:21:37;;;;;;;17.83;10.68;;;5.80;99.90;;;;;;5007972;28;20072;-40
2022/11/28 02:24:43;;;;;;;21.95;11.43;;;5.80;99.90;;;;;;5008158;28;20037;-40
2022/11/28 02:27:43;;;;;;;17.98;10.02;;;5.80;99.90;;;;;;5008033;28;20052;-40
2022/11/28 02:30:15;;;;;;;23.17;11.52;;;5.80;99.90;;;;;;5006341;28;20021;-41
2022/11/28 02:32:54;;;;;;;17.63;11.52;;;5.80;99.90;;;;;;5008259;28;20022;-41
2022/11/28 02:35:41;;;;;;;21.75;11.75;;;5.80;99.90;;;;;;5007938;28;20380;-41
2022/11/28 02:38:28;;;;;;;23.13;12.02;;;5.80;99.90;;;;;;5008461;28;20018;-40
2022/11/28 02:41:06;;;;;;;20.42;10.90;;;5.80;99.90;;;;;;5007840;28;20030;-40
2022/11/28 02:44:07;;;;;;;16.88;11.65;;;5.90;99.90;;;;;;5011094;28;20443;-40
2022/11/28 02:46:56;;;;;;;20.77;12.43;;;5.90;99.90;;;;;;5006888;28;20038;-42
2022/11/28 02:49:54;;;;;;;20.25;11.50;;;5.80;99.90;;;;;;5011332;28;20040;-44
2022/11/28 02:52:35;;;;;;;19.05;10.38;;;5.80;99.90;;;;;;5011716;28;20022;-41
2022/11/28 02:55:01;;;;;;;19.50;11.65;;;5.80;99.90;;;;;;5011289;28;20034;-41
2022/11/28 02:57:38;;;;;;;20.52;11.60;;;5.80;99.90;;;;;;5010039;28;20375;-42
2022/11/28 03:00:24;;;;;;;21.85;12.32;;;5.80;99.90;;;;;;5010877;28;20030;-41
2022/11/28 03:03:01;;;;;;;18.25;11.63;;;5.80;99.90;;;;;;5011483;28;20022;-48
2022/11/28 03:05:32;;;;;;;22.33;11.45;;;5.80;99.90;;;;;;5011064;28;20026;-50
2022/11/28 03:08:29;;;;;;;20.48;11.25;;;5.70;99.90;;;;;;5010640;28;20601;-51
2022/11/28 03:11:07;;;;;;;20.30;11.60;;;5.80;99.90;;;;;;5010453;28;20522;-47
2022/11/28 03:13:54;;;;;;;16.98;10.85;;;5.80;99.90;;;;;;5011059;28;20026;-50
2022/11/28 03:16:34;;;;;;;21.27;11.48;;;5.80;99.90;;;;;;5011120;28;20068;-48
2022/11/28 03:19:13;;;;;;;16.70;10.50;;;5.80;99.90;;;;;;5010871;28;20041;-50
2022/11/28 03:21:41;;;;;;;19.15;10.73;;;5.70;99.90;;;;;;5011019;28;20100;-50
2022/11/28 03:24:28;;;;;;;21.63;12.13;;;5.70;99.90;;;;;;5010912;28;20026;-47
2022/11/28 03:27:04;;;;;;;18.77;12.13;;;5.70;99.90;;;;;;5011331;28;20018;-48
2022/11/28 03:29:40;;;;;;;20.90;11.65;;;5.70;99.90;;;;;;5010642;28;20494;-49
2022/11/28 03:32:15;;;;;;;18.58;11.15;;;5.70;99.90;;;;;;5010951;28;20049;-49
2022/11/28 03:34:44;;;;;;;19.65;11.38;;;5.70;99.90;;;;;;5009242;28;20040;-51
2022/11/28 03:37:14;;;;;;;17.08;10.40;;;5.70;99.90;;;;;;5011026;28;20028;-51
2022/11/28 03:39:45;;;;;;;14.95;10.93;;;5.80;99.90;;;;;;5010858;28;20018;-48
2022/11/28 03:42:35;;;;;;;17.00;10.32;;;5.80;99.90;;;;;;5009654;28;20034;-48
2022/11/28 03:45:09;;;;;;;16.95;11.45;;;5.80;99.90;;;;;;5010857;28;20230;-48
2022/11/28 03:47:41;;;;;;;16.65;10.73;;;5.80;99.90;;;;;;4993079;28;20406;-48
2022/11/28 03:50:13;;;;;;;19.40;11.93;;;5.80;99.90;;;;;;5010642;28;20076;-49
2022/11/28 03:52:44;;;;;;;20.70;11.93;;;5.90;99.90;;;;;;5011121;28;20022;-47
2022/11/28 03:55:28;;;;;;;22.63;11.65;;;5.90;99.90;;;;;;5010967;28;20042;-48
2022/11/28 03:58:04;;;;;;;17.63;10.80;;;5.80;99.90;;;;;;5011223;28;20430;-47
2022/11/28 04:00:35;;;;;;;21.75;13.18;;;5.80;99.90;;;;;;5010220;28;20032;-47
2022/11/28 04:03:37;;;;;;;19.73;12.25;;;5.80;99.90;;;;;;5010854;28;20377;-48
2022/11/28 04:06:26;;;;;;;21.23;11.75;;;5.80;99.90;;;;;;5010763;28;20402;-47
2022/11/28 04:09:01;;;;;;;20.70;12.55;;;5.70;99.90;;;;;;5010522;28;20049;-51
2022/11/28 04:11:36;;;;;;;23.00;11.43;;;5.70;99.90;;;;;;5009434;28;20325;-51
2022/11/28 04:14:18;;;;;;;21.27;12.15;;;5.70;99.90;;;;;;5010126;28;20026;-51
2022/11/28 04:16:52;;;;;;;20.35;11.15;;;5.70;99.90;;;;;;5006338;28;20022;-48
2022/11/28 04:19:42;;;;;;;19.90;11.40;;;5.60;99.90;;;;;;5008403;28;20033;-54
2022/11/28 04:22:17;;;;;;;21.38;12.25;;;5.60;99.90;;;;;;5007950;28;20072;-48
2022/11/28 04:24:54;;;;;;;18.83;12.13;;;5.60;99.90;;;;;;5007566;28;20137;-50
2022/11/28 04:27:25;;;;;;;18.90;11.52;;;5.60;99.90;;;;;;5010340;28;20076;-52
2022/11/28 04:29:55;;;;;;;24.73;11.93;;;5.60;99.90;;;;;;5009703;28;20081;-48
2022/11/28 04:32:23;;;;;;;21.75;11.48;;;5.60;99.90;;;;;;5009354;28;20037;-49
2022/11/28 04:34:53;;;;;;;18.33;11.68;;;5.60;99.90;;;;;;5008963;28;20317;-48
2022/11/28 04:37:21;;;;;;;22.40;11.37;;;5.60;99.90;;;;;;5009093;28;20014;-51
2022/11/28 04:39:48;;;;;;;20.40;11.38;;;5.60;99.90;;;;;;5005579;28;20427;-49
2022/11/28 04:42:20;;;;;;;18.33;11.10;;;5.60;99.90;;;;;;5009094;28;20014;-51
2022/11/28 04:44:56;;;;;;;20.60;11.63;;;5.60;99.90;;;;;;5009222;28;20208;-50
2022/11/28 04:47:22;;;;;;;19.83;11.48;;;5.60;99.90;;;;;;5008053;28;20679;-51
2022/11/28 04:49:48;;;;;;;19.60;12.55;;;5.60;99.90;;;;;;5009119;28;20530;-49
2022/11/28 04:52:23;;;;;;;20.63;11.93;;;5.60;99.90;;;;;;5008103;28;20026;-49
2022/11/28 04:55:05;;;;;;;22.63;12.27;;;5.60;99.90;;;;;;5009532;28;20037;-51
2022/11/28 04:57:36;;;;;;;23.80;12.55;;;5.60;99.90;;;;;;5008618;28;20026;-48
2022/11/28 05:00:05;;;;;;;19.00;12.13;;;5.60;99.90;;;;;;5006054;28;20030;-48
2022/11/28 05:02:33;;;;;;;20.00;12.63;;;5.60;99.90;;;;;;5008192;28;20026;-48
2022/11/28 05:04:58;;;;;;;22.10;12.90;;;5.60;99.90;;;;;;5008525;28;20029;-48
2022/11/28 05:07:24;;;;;;;20.55;12.68;;;5.50;99.90;;;;;;5007460;28;20036;-48
2022/11/28 05:09:50;;;;;;;21.63;12.57;;;5.60;99.90;;;;;;5008756;28;20230;-47
2022/11/28 05:12:15;;;;;;;26.20;14.15;;;5.50;99.90;;;;;;5009306;28;20029;-48
2022/11/28 05:14:41;;;;;;;22.30;12.55;;;5.50;99.90;;;;;;5008804;28;20034;-49
2022/11/28 05:17:07;;;;;;;23.38;12.82;;;5.50;99.90;;;;;;5008765;28;20026;-47
2022/11/28 05:19:32;;;;;;;25.98;13.05;;;5.60;99.90;;;;;;4990758;28;20117;-48
2022/11/28 05:21:58;;;;;;;22.33;12.90;;;5.60;99.90;;;;;;5009306;28;20025;-51
2022/11/28 05:24:23;;;;;;;22.98;13.55;;;5.60;99.90;;;;;;5009406;28;20108;-48
2022/11/28 05:26:49;;;;;;;22.73;12.50;;;5.60;99.90;;;;;;5009370;28;20061;-49
2022/11/28 05:29:15;;;;;;;19.70;13.07;;;5.60;99.90;;;;;;5008668;28;20033;-48
2022/11/28 05:31:40;;;;;;;20.48;12.10;;;5.60;99.90;;;;;;5009596;28;20030;-50
2022/11/28 05:34:06;;;;;;;22.10;12.38;;;5.60;99.90;;;;;;5008889;28;20404;-47
2022/11/28 05:36:31;;;;;;;23.38;12.13;;;5.60;99.90;;;;;;5009071;28;20037;-48
2022/11/28 05:38:57;;;;;;;19.70;11.95;;;5.60;99.90;;;;;;5009009;28;20497;-49
2022/11/28 05:41:25;;;;;;;18.60;11.40;;;5.50;99.90;;;;;;5008495;28;20076;-48
2022/11/28 05:43:51;;;;;;;22.95;12.70;;;5.50;99.90;;;;;;5009061;28;20030;-49
2022/11/28 05:46:17;;;;;;;22.17;12.90;;;5.50;99.90;;;;;;5008284;28;20029;-47
2022/11/28 05:48:43;;;;;;;19.30;11.48;;;5.50;99.90;;;;;;5008480;28;20587;-47
2022/11/28 05:51:09;;;;;;;19.88;12.38;;;5.40;99.90;;;;;;5007840;28;20014;-51
2022/11/28 05:53:34;;;;;;;18.48;11.48;;;5.40;99.90;;;;;;5008679;28;20717;-47
2022/11/28 05:56:05;;;;;;;18.25;12.05;;;5.40;99.90;;;;;;5009577;28;20543;-47
2022/11/28 05:58:31;;;;;;;19.30;11.77;;;5.40;99.90;;;;;;5007759;28;20109;-49
2022/11/28 06:00:57;;;;;;;20.33;11.30;;;5.40;99.90;;;;;;5009932;28;20093;-47
2022/11/28 06:03:22;;;;;;;19.38;11.40;;;5.40;99.90;;;;;;5010018;28;20022;-50
2022/11/28 06:05:48;;;;;;;20.83;12.43;;;5.30;99.90;;;;;;5010509;28;20045;-50
2022/11/28 06:08:13;;;;;;;21.13;11.98;;;5.30;99.90;;;;;;5010365;28;20018;-48
2022/11/28 06:10:39;;;;;;;22.58;12.35;;;5.30;99.90;;;;;;5009454;28;20410;-49
2022/11/28 06:13:05;;;;;;;21.63;12.52;;;5.30;99.90;;;;;;5010216;28;20467;-50
2022/11/28 06:15:33;;;;;;;19.10;11.15;;;5.30;99.90;;;;;;5009664;28;20025;-47
2022/11/28 06:17:58;;;;;;;21.92;13.30;;;5.30;99.90;;;;;;5012087;28;20117;-52
2022/11/28 06:20:24;;;;;;;21.80;11.20;;;5.30;99.90;;;;;;5012933;28;20087;-49
2022/11/28 06:22:49;;;;;;;20.80;12.65;;;5.30;99.90;;;;;;5011889;28;20018;-47
2022/11/28 06:25:15;;;;;;;18.35;11.82;;;5.30;99.90;;;;;;5013024;28;20482;-49
2022/11/28 06:27:40;;;;;;;19.88;11.65;;;5.30;99.90;;;;;;5012541;28;20029;-49
2022/11/28 06:30:06;;;;;;;21.80;13.38;;;5.30;99.90;;;;;;5002207;28;20045;-50
2022/11/28 06:32:32;;;;;;;20.55;11.43;;;5.30;99.90;;;;;;5003816;28;20052;-50
2022/11/28 06:34:57;;;;;;;18.30;11.57;;;5.30;99.90;;;;;;5010336;28;20033;-49
2022/11/28 06:37:23;;;;;;;20.17;12.48;;;5.50;99.90;;;;;;5006599;28;20033;-47
2022/11/28 06:39:50;;;;;;;20.10;11.90;;;5.50;99.90;;;;;;5012863;28;20414;-49
2022/11/28 06:42:15;;;;;;;20.05;12.05;;;5.50;99.90;;;;;;5012341;28;20053;-49
2022/11/28 06:44:41;;;;;;;17.23;11.15;;;5.50;99.90;;;;;;5011564;28;20111;-46
2022/11/28 06:47:07;;;;;;;24.13;12.20;;;5.60;99.90;;;;;;5010707;28;20029;-47
2022/11/28 06:49:32;;;;;;;16.80;10.95;;;5.60;99.90;;;;;;5011888;28;20034;-46
2022/11/28 06:51:58;;;;;;;17.58;11.40;;;5.50;99.90;;;;;;5011976;28;20026;-47
2022/11/28 06:54:23;;;;;;;20.25;11.60;;;5.40;99.90;;;;;;5007606;28;20025;-47
2022/11/28 06:56:49;;;;;;;20.83;11.43;;;5.40;99.90;;;;;;5010776;28;20073;-47
2022/11/28 06:59:14;;;;;;;18.38;11.27;;;5.40;99.90;;;;;;5012187;28;20014;-46
2022/11/28 07:01:40;;;;;;;19.95;11.75;;;5.40;99.90;;;;;;5012911;28;20434;-48
2022/11/28 07:04:05;;;;;;;20.40;12.13;;;5.30;99.90;;;;;;5011811;28;20419;-47
2022/11/28 07:06:32;;;;;;;17.40;11.35;;;5.30;99.90;;;;;;5013186;28;20033;-48
2022/11/28 07:08:58;;;;;;;19.02;12.07;;;5.30;99.90;;;;;;5012768;28;20032;-47
2022/11/28 07:11:26;;;;;;;20.92;12.18;;;5.30;99.90;;;;;;5012452;28;20022;-47
2022/11/28 07:13:53;;;;;;;18.85;11.15;;;5.30;99.90;;;;;;5012925;28;20029;-46
2022/11/28 07:16:21;;;;;;;25.40;13.25;;;5.40;99.90;;;;;;5011748;28;20037;-47
2022/11/28 07:18:47;;;;;;;20.10;12.38;;;5.40;99.90;;;;;;5012999;28;20696;-47
2022/11/28 07:21:13;;;;;;;20.40;13.25;;;5.40;99.90;;;;;;5012800;28;20087;-50
2022/11/28 07:23:40;;;;;;;18.65;11.65;;;5.40;99.90;;;;;;5011729;28;20501;-49
2022/11/28 07:26:06;;;;;;;21.00;13.02;;;5.40;99.90;;;;;;5013042;28;20057;-50
2022/11/28 07:28:33;;;;;;;22.05;13.60;;;5.50;99.90;;;;;;5010649;28;20041;-50
2022/11/28 07:31:06;;;;;;;20.13;12.48;;;5.40;99.90;;;;;;5010325;28;20079;-48
2022/11/28 07:33:33;;;;;;;21.30;12.30;;;5.40;99.90;;;;;;5010198;28;20026;-47
2022/11/28 07:36:01;;;;;;;22.63;12.38;;;5.40;99.90;;;;;;5010483;28;20053;-48
2022/11/28 07:38:26;;;;;;;22.38;13.18;;;5.40;99.90;;;;;;5010682;28;20394;-48
2022/11/28 07:40:51;;;;;;;22.63;12.30;;;5.40;99.90;;;;;;5008878;28;20026;-50
2022/11/28 07:43:17;;;;;;;21.80;13.20;;;5.40;99.90;;;;;;5007338;28;20020;-50
2022/11/28 07:45:42;;;;;;;18.83;11.23;;;5.30;99.90;;;;;;5008480;28;20056;-46
2022/11/28 07:48:09;;;;;;;19.05;11.43;;;5.40;99.90;;;;;;5008045;28;20391;-48
2022/11/28 07:50:37;;;;;;;18.73;12.48;;;5.40;99.90;;;;;;5007824;28;20033;-47
2022/11/28 07:53:02;;;;;;;20.42;12.32;;;5.40;99.90;;;;;;5008977;28;20029;-47
2022/11/28 07:55:28;;;;;;;22.05;12.75;;;5.40;99.90;;;;;;5009343;28;20026;-47
2022/11/28 07:57:53;;;;;;;20.88;12.27;;;5.50;99.90;;;;;;5009688;28;20087;-47
2022/11/28 08:00:19;;;;;;;23.60;12.00;;;5.50;99.90;;;;;;5009427;28;20037;-48
2022/11/28 08:02:45;;;;;;;22.67;11.98;;;5.50;99.90;;;;;;5009684;28;20030;-47
2022/11/28 08:05:11;;;;;;;21.50;11.73;;;5.50;99.90;;;;;;5009770;28;20073;-47
2022/11/28 08:07:38;;;;;;;17.73;11.55;;;5.60;99.90;;;;;;5009667;28;20049;-47
2022/11/28 08:10:06;;;;;;;21.58;11.63;;;5.50;99.90;;;;;;5009467;28;20412;-48
2022/11/28 08:12:31;;;;;;;18.38;11.23;;;5.60;99.90;;;;;;5009743;28;20029;-48
2022/11/28 08:14:57;;;;;;;18.73;11.18;;;5.80;99.90;;;;;;5008149;28;20368;-50
2022/11/28 08:17:22;;;;;;;18.25;12.10;;;5.80;99.90;;;;;;5008200;28;20113;-48
2022/11/28 08:19:48;;;;;;;20.77;11.23;;;5.90;99.90;;;;;;5008922;28;20010;-50
2022/11/28 08:22:13;;;;;;;17.05;10.68;;;5.80;99.90;;;;;;5008985;28;20101;-46
2022/11/28 08:24:39;;;;;;;17.92;11.13;;;5.80;99.90;;;;;;5008989;28;20040;-46
2022/11/28 08:27:04;;;;;;;25.05;11.43;;;5.90;99.90;;;;;;5009352;28;20018;-46
2022/11/28 08:29:30;;;;;;;21.15;12.18;;;5.80;99.90;;;;;;5007327;28;20537;-47
2022/11/28 08:31:55;;;;;;;20.73;12.48;;;5.90;99.90;;;;;;5009750;28;20060;-48
2022/11/28 08:34:21;;;;;;;19.25;11.95;;;5.90;99.90;;;;;;5009070;28;20038;-49
2022/11/28 08:36:47;;;;;;;20.17;11.95;;;5.90;99.90;;;;;;5009118;28;20045;-50
2022/11/28 08:39:13;;;;;;;21.33;12.30;;;5.90;99.90;;;;;;5008351;28;20018;-47
2022/11/28 08:41:38;;;;;;;21.98;12.18;;;6.00;99.90;;;;;;5008534;28;20033;-51
2022/11/28 08:44:04;;;;;;;19.80;11.80;;;6.00;99.90;;;;;;5008909;28;20029;-51
2022/11/28 08:46:29;;;;;;;20.55;11.38;;;6.00;99.90;;;;;;5007602;28;20026;-48
2022/11/28 08:48:55;;;;;;;22.80;12.38;;;6.00;99.90;;;;;;5007570;28;20210;-48
2022/11/28 08:51:24;;;;;;;19.25;11.40;;;6.00;99.90;;;;;;5008207;28;20127;-47
2022/11/28 08:53:51;;;;;;;18.30;10.10;;;6.10;99.90;;;;;;5008847;28;20029;-47
2022/11/28 08:56:17;;;;;;;16.83;10.30;;;6.10;99.90;;;;;;5008804;28;20026;-48
2022/11/28 08:58:42;;;;;;;24.08;11.75;;;6.10;99.90;;;;;;5007945;28;20387;-48
2022/11/28 09:01:25;;;;;;;20.95;12.02;;;6.10;99.90;;;;;;5008130;28;20490;-46
2022/11/28 09:03:52;;;;;;;25.45;12.98;;;6.10;99.90;;;;;;5007198;28;20021;-47
2022/11/28 09:06:19;;;;;;;22.65;14.15;;;6.10;99.90;;;;;;5008553;28;20143;-46
2022/11/28 09:08:45;;;;;;;22.60;12.30;;;6.00;99.90;;;;;;5006549;28;20111;-46
2022/11/28 09:11:13;;;;;;;20.45;12.98;;;6.10;99.90;;;;;;5008568;28;20081;-48
2022/11/28 09:13:39;;;;;;;22.48;12.20;;;6.10;99.90;;;;;;5008970;28;20088;-47
2022/11/28 09:16:05;;;;;;;18.65;12.20;;;6.00;99.90;;;;;;5009005;28;20562;-47
2022/11/28 09:18:31;;;;;;;18.73;11.82;;;6.00;99.90;;;;;;5008802;28;20018;-48
2022/11/28 09:20:58;;;;;;;19.00;12.10;;;6.00;99.90;;;;;;5008130;28;20022;-46
2022/11/28 09:23:24;;;;;;;22.52;12.75;;;6.00;99.90;;;;;;5006473;28;20030;-47
2022/11/28 09:25:49;;;;;;;26.00;14.18;;;6.10;99.90;;;;;;5008775;28;20435;-49
2022/11/28 09:28:15;;;;;;;22.50;13.13;;;6.00;99.90;;;;;;5006980;28;20128;-51
2022/11/28 09:30:40;;;;;;;22.52;13.13;;;6.00;99.90;;;;;;5007896;28;20022;-49
2022/11/28 09:33:05;;;;;;;24.70;13.30;;;6.00;99.90;;;;;;5008295;28;20029;-46
2022/11/28 09:35:31;;;;;;;21.85;12.95;;;6.00;99.90;;;;;;5008510;28;20026;-47
2022/11/28 09:37:57;;;;;;;26.30;12.77;;;6.00;99.90;;;;;;5008002;28;20037;-48
2022/11/28 09:40:42;;;;;;;23.95;13.15;;;6.00;99.90;;;;;;5007887;28;20020;-46
2022/11/28 09:43:15;;;;;;;23.85;13.60;;;6.00;99.90;;;;;;5008096;28;20030;-47
2022/11/28 09:45:43;;;;;;;25.52;13.55;;;5.90;99.90;;;;;;5008173;28;20045;-46
2022/11/28 09:48:34;;;;;;;24.02;13.70;;;5.90;99.90;;;;;;5008375;28;20105;-47
2022/11/28 09:51:06;;;;;;;25.65;13.40;;;5.80;99.90;;;;;;5008386;28;20034;-46
2022/11/28 09:54:09;;;;;;;25.48;13.77;;;5.70;99.90;;;;;;5013205;28;20018;-46
2022/11/28 09:56:35;;;;;;;26.30;13.48;;;5.80;99.90;;;;;;5011237;28;20534;-47
2022/11/28 09:59:03;;;;;;;23.17;13.25;;;5.80;99.90;;;;;;5012443;28;20129;-48
2022/11/28 10:01:47;;;;;;;21.35;13.25;;;5.80;99.90;;;;;;5012258;28;20018;-46
2022/11/28 10:04:40;;;;;;;21.48;12.70;;;5.90;99.90;;;;;;5011418;28;20018;-50
2022/11/28 10:07:19;;;;;;;24.92;13.85;;;5.90;99.90;;;;;;5009217;28;20545;-49
2022/11/28 10:10:13;;;;;;;23.80;13.65;;;5.90;99.90;;;;;;5011568;28;20025;-48
2022/11/28 10:13:17;;;;;;;23.73;12.93;;;5.80;99.90;;;;;;5011681;28;20026;-47
2022/11/28 10:16:06;;;;;;;24.67;13.65;;;5.90;99.90;;;;;;5009484;28;20014;-48
2022/11/28 10:18:42;;;;;;;25.42;13.60;;;6.00;99.90;;;;;;5010603;28;20014;-51
2022/11/28 10:21:21;;;;;;;22.52;12.73;;;5.90;99.90;;;;;;5009585;28;20104;-51
2022/11/28 10:23:48;;;;;;;23.17;13.18;;;6.00;99.90;;;;;;5009973;28;20380;-48
2022/11/28 10:26:31;;;;;;;22.95;13.30;;;5.90;99.90;;;;;;5012274;28;20029;-47
2022/11/28 10:29:01;;;;;;;24.55;12.88;;;6.00;99.90;;;;;;5012396;28;20195;-47
2022/11/28 10:31:35;;;;;;;25.90;13.67;;;6.10;99.90;;;;;;5012322;28;20080;-48
2022/11/28 10:34:10;;;;;;;23.73;13.25;;;6.10;99.90;;;;;;5008623;28;20042;-50
2022/11/28 10:37:06;;;;;;;22.17;12.10;;;6.10;99.90;;;;;;5010752;28;20030;-48
2022/11/28 10:39:36;;;;;;;21.58;12.77;;;6.20;99.90;;;;;;5009840;28;20494;-46
2022/11/28 10:42:10;;;;;;;27.17;12.15;;;6.20;99.90;;;;;;5009426;28;20074;-49
2022/11/28 10:44:56;;;;;;;24.63;13.65;;;6.30;99.90;;;;;;5010772;28;20067;-51
2022/11/28 10:47:52;;;;;;;22.33;12.55;;;6.30;99.90;;;;;;5010549;28;20128;-51
2022/11/28 10:50:38;;;;;;;21.00;11.88;;;6.40;99.90;;;;;;5007817;28;20093;-50
2022/11/28 10:53:27;;;;;;;20.67;13.10;;;6.40;99.90;;;;;;5009084;28;20088;-48
2022/11/28 10:56:24;;;;;;;22.20;12.00;;;6.50;99.90;;;;;;5010742;28;20036;-49
2022/11/28 10:58:56;;;;;;;25.42;11.63;;;6.50;99.90;;;;;;5010747;28;20026;-50
2022/11/28 11:01:23;;;;;;;19.52;12.02;;;6.50;99.90;;;;;;5010196;28;20022;-49
2022/11/28 11:03:48;;;;;;;18.35;11.77;;;6.50;99.90;;;;;;5010128;28;20596;-51
2022/11/28 11:06:14;;;;;;;19.00;11.02;;;6.50;99.90;;;;;;5010025;28;20136;-48
2022/11/28 11:08:40;;;;;;;21.95;11.35;;;6.50;99.90;;;;;;5009409;28;20030;-48
2022/11/28 11:11:23;;;;;;;26.40;11.90;;;6.60;99.90;;;;;;5009911;28;20390;-49
2022/11/28 11:14:09;;;;;;;19.48;11.98;;;6.60;99.90;;;;;;5006950;28;20034;-47
2022/11/28 11:16:54;;;;;;;20.00;11.60;;;6.60;99.90;;;;;;5006558;28;20041;-49
2022/11/28 11:19:28;;;;;;;18.98;11.45;;;6.60;99.90;;;;;;5007547;28;20375;-50
2022/11/28 11:22:23;;;;;;;21.27;12.00;;;6.60;99.90;;;;;;5009428;28;20383;-49
2022/11/28 11:25:19;;;;;;;23.27;11.30;;;6.60;99.90;;;;;;5008704;28;20510;-43
2022/11/28 11:27:53;;;;;;;21.45;12.10;;;6.60;99.90;;;;;;5008219;28;20585;-41
2022/11/28 11:30:32;;;;;;;22.60;11.48;;;6.70;99.90;;;;;;5007056;28;20040;-42
2022/11/28 11:33:00;;;;;;;20.42;11.13;;;6.60;99.90;;;;;;5009799;28;20565;-42
2022/11/28 11:35:28;;;;;;;18.10;11.05;;;6.60;99.90;;;;;;5004594;28;20053;-44
2022/11/28 11:38:33;;;;;;;20.13;10.65;;;6.70;99.90;;;;;;4996952;28;20053;-41
2022/11/28 11:41:27;;;;;;;20.85;11.90;;;6.70;99.90;;;;;;5009191;28;20034;-42
2022/11/28 11:43:53;;;;;;;21.33;11.80;;;6.80;99.90;;;;;;5009833;28;20479;-42
2022/11/28 11:46:18;;;;;;;19.08;11.93;;;6.80;99.90;;;;;;5009772;28;20041;-42
2022/11/28 11:48:47;;;;;;;20.70;10.40;;;6.80;99.90;;;;;;5010138;28;20479;-42
2022/11/28 11:51:30;;;;;;;22.38;11.65;;;6.70;99.90;;;;;;5009451;28;20029;-42
2022/11/28 11:54:14;;;;;;;16.27;10.68;;;6.70;99.90;;;;;;5009572;28;20095;-44
2022/11/28 11:56:44;;;;;;;17.38;10.38;;;6.60;99.90;;;;;;5010058;28;20029;-44
2022/11/28 11:59:20;;;;;;;20.25;11.80;;;6.60;99.90;;;;;;5010261;28;20030;-40
2022/11/28 12:01:50;;;;;;;17.48;10.65;;;6.60;99.90;;;;;;5009317;28;20038;-43
2022/11/28 12:04:22;;;;;;;21.10;11.35;;;6.70;99.90;;;;;;5009382;28;20069;-41
2022/11/28 12:06:50;;;;;;;19.75;11.50;;;6.50;99.90;;;;;;5010867;28;20072;-41
2022/11/28 12:09:33;;;;;;;23.42;11.27;;;6.60;99.90;;;;;;5009947;28;20025;-42
2022/11/28 12:12:06;;;;;;;18.98;10.80;;;6.70;99.90;;;;;;5010407;28;20091;-42
2022/11/28 12:14:33;;;;;;;23.52;11.40;;;6.80;99.90;;;;;;5009528;28;20022;-43
2022/11/28 12:17:23;;;;;;;22.30;11.73;;;6.80;99.90;;;;;;5010463;28;20029;-40
2022/11/28 12:19:52;;;;;;;23.50;11.67;;;6.70;99.90;;;;;;5009815;28;20022;-42
2022/11/28 12:22:55;;;;;;;19.58;11.45;;;6.80;99.90;;;;;;5010326;28;20076;-46
2022/11/28 12:25:48;;;;;;;18.83;11.73;;;6.90;99.90;;;;;;5009048;28;20045;-41
2022/11/28 12:28:47;;;;;;;17.02;10.77;;;6.90;99.90;;;;;;5008672;28;20396;-40
2022/11/28 12:31:31;;;;;;;18.00;11.02;;;6.90;99.90;;;;;;5010147;28;20040;-42
2022/11/28 12:34:09;;;;;;;22.52;12.38;;;6.90;99.90;;;;;;5010078;28;20038;-42
2022/11/28 12:36:58;;;;;;;19.92;11.10;;;6.90;99.90;;;;;;5010417;28;20037;-43
2022/11/28 12:39:34;;;;;;;18.88;10.60;;;6.90;99.90;;;;;;5009488;28;20093;-42
2022/11/28 12:42:26;;;;;;;23.55;11.48;;;7.00;99.90;;;;;;5007469;28;20045;-44
2022/11/28 12:45:24;;;;;;;20.05;11.15;;;7.00;99.90;;;;;;5010660;28;20471;-41
2022/11/28 12:47:58;;;;;;;19.60;12.02;;;6.90;99.90;;;;;;5009864;28;20073;-41
2022/11/28 12:50:35;;;;;;;22.33;12.38;;;6.90;99.90;;;;;;5009779;28;20034;-41
2022/11/28 12:53:20;;;;;;;22.67;11.68;;;6.90;99.90;;;;;;5007764;28;20040;-41
2022/11/28 12:55:50;;;;;;;20.60;12.02;;;6.90;99.90;;;;;;5007838;28;20053;-42
2022/11/28 12:58:28;;;;;;;19.00;11.45;;;6.80;99.90;;;;;;5009807;28;20033;-41
2022/11/28 13:01:13;;;;;;;18.77;11.02;;;6.90;99.90;;;;;;5008938;28;20037;-44
2022/11/28 13:03:58;;;;;;;25.38;12.52;;;6.90;99.90;;;;;;5008486;28;20387;-42
2022/11/28 13:06:46;;;;;;;23.73;12.98;;;6.90;99.90;;;;;;5008085;28;20504;-43